Time;durP1;ratioP1;P1;durP2;ratioP2;P2;SDS_P1;SDS_P2;PMS_P1;PMS_P2;Temp;Humidity;BMP_temperature;BMP_pressure;BME280_temperature;BME280_humidity;BME280_pressure;Samples;Min_cycle;Max_cycle;Signal;HPM_P1;HPM_P2
2023/09/04 00:00:17;;;;;;;12.32;10.25;;;;;;;;;;10267035;28;20111;-68
2023/09/04 00:05:13;;;;;;;11.48;10.40;;;;;;;;;;10263180;28;20053;-68
2023/09/04 00:10:10;;;;;;;12.00;10.90;;;;;;;;;;10262136;28;20057;-68
2023/09/04 00:15:06;;;;;;;14.43;12.43;;;;;;;;;;10269645;28;20556;-68
2023/09/04 00:20:03;;;;;;;12.43;11.30;;;;;;;;;;10272209;28;20456;-69
2023/09/04 00:24:59;;;;;;;12.70;11.50;;;;;;;;;;10268977;28;20651;-69
2023/09/04 00:29:55;;;;;;;13.45;12.07;;;;;;;;;;10253672;28;20053;-68
2023/09/04 00:34:51;;;;;;;12.52;11.30;;;;;;;;;;10265186;28;20037;-68
2023/09/04 00:39:48;;;;;;;13.45;12.18;;;;;;;;;;10266443;28;20684;-68
2023/09/04 00:44:47;;;;;;;13.52;12.13;;;;;;;;;;10267434;28;20049;-69
2023/09/04 00:49:44;;;;;;;12.32;11.13;;;;;;;;;;10275280;28;20107;-69
2023/09/04 00:54:41;;;;;;;12.88;11.68;;;;;;;;;;10274843;28;20489;-68
2023/09/04 00:59:37;;;;;;;13.32;12.05;;;;;;;;;;10270792;28;20067;-70
2023/09/04 01:04:34;;;;;;;13.95;12.02;;;;;;;;;;10265492;28;20084;-69
2023/09/04 01:09:30;;;;;;;13.18;11.88;;;;;;;;;;11567238;23;20058;-70
2023/09/04 01:14:28;;;;;;;13.43;12.13;;;;;;;;;;10128129;28;20101;-70
2023/09/04 01:19:24;;;;;;;12.48;11.20;;;;;;;;;;10132447;28;20150;-71
2023/09/04 01:24:21;;;;;;;13.27;12.07;;;;;;;;;;10100935;28;20157;-70
2023/09/04 01:29:25;;;;;;;12.90;11.60;;;;;;;;;;10098066;28;20132;-71
2023/09/04 01:34:25;;;;;;;12.50;11.27;;;;;;;;;;10095434;28;20042;-71
2023/09/04 01:39:21;;;;;;;14.55;11.57;;;;;;;;;;10102626;28;20080;-71
2023/09/04 01:44:18;;;;;;;13.73;12.18;;;;;;;;;;10104376;28;20522;-71
2023/09/04 01:49:14;;;;;;;13.68;12.30;;;;;;;;;;10105738;28;20101;-70
2023/09/04 01:54:11;;;;;;;13.35;11.50;;;;;;;;;;10103187;28;20458;-70
2023/09/04 01:59:08;;;;;;;13.27;11.50;;;;;;;;;;10108761;28;20054;-70
2023/09/04 02:04:05;;;;;;;11.98;10.88;;;;;;;;;;10096178;28;20506;-70
2023/09/04 02:09:02;;;;;;;11.85;10.60;;;;;;;;;;10098280;28;20507;-70
2023/09/04 02:13:59;;;;;;;12.15;11.00;;;;;;;;;;10096929;28;20494;-70
2023/09/04 02:18:55;;;;;;;12.13;10.93;;;;;;;;;;10106571;28;20057;-70
2023/09/04 02:23:51;;;;;;;12.13;10.88;;;;;;;;;;10099091;28;20047;-71
2023/09/04 02:28:48;;;;;;;13.43;11.65;;;;;;;;;;10114139;28;20959;-70
2023/09/04 02:33:44;;;;;;;11.13;10.23;;;;;;;;;;10103167;28;20090;-70
2023/09/04 02:38:41;;;;;;;12.07;10.80;;;;;;;;;;10098588;28;20089;-70
2023/09/04 02:43:37;;;;;;;12.65;11.50;;;;;;;;;;10103974;28;20046;-71
2023/09/04 02:48:34;;;;;;;13.05;10.93;;;;;;;;;;10113815;28;20055;-69
2023/09/04 02:53:32;;;;;;;12.23;11.13;;;;;;;;;;10104608;28;20426;-69
2023/09/04 02:58:28;;;;;;;13.27;11.88;;;;;;;;;;10102205;28;20051;-70
2023/09/04 03:03:25;;;;;;;13.27;12.15;;;;;;;;;;10112196;28;20065;-71
2023/09/04 03:08:22;;;;;;;11.88;10.77;;;;;;;;;;10120928;28;20043;-70
2023/09/04 03:13:19;;;;;;;12.65;11.52;;;;;;;;;;10438903;23;20037;-69
2023/09/04 03:18:15;;;;;;;12.85;11.65;;;;;;;;;;10261193;28;20065;-70
2023/09/04 03:23:11;;;;;;;12.65;11.35;;;;;;;;;;10250367;28;20107;-70
2023/09/04 03:28:08;;;;;;;12.65;11.43;;;;;;;;;;10258681;28;20045;-70
2023/09/04 03:33:04;;;;;;;12.70;11.40;;;;;;;;;;10261729;28;20041;-72
2023/09/04 03:38:01;;;;;;;18.35;12.18;;;;;;;;;;10245147;28;20045;-72
2023/09/04 03:42:57;;;;;;;12.27;11.10;;;;;;;;;;10328573;22;20161;-73
2023/09/04 03:47:56;;;;;;;12.73;11.43;;;;;;;;;;10288607;28;20466;-73
2023/09/04 03:52:54;;;;;;;12.38;11.18;;;;;;;;;;10326635;22;20677;-72
2023/09/04 03:57:51;;;;;;;13.02;11.32;;;;;;;;;;10290125;28;20051;-73
2023/09/04 04:02:48;;;;;;;13.05;11.85;;;;;;;;;;10286047;28;20040;-73
2023/09/04 04:07:45;;;;;;;13.93;12.73;;;;;;;;;;10272701;28;20052;-72
2023/09/04 04:12:42;;;;;;;14.00;12.80;;;;;;;;;;10279630;28;20545;-72
2023/09/04 04:17:38;;;;;;;15.10;12.48;;;;;;;;;;10279327;28;20049;-73
2023/09/04 04:22:35;;;;;;;13.73;12.13;;;;;;;;;;10297898;28;20432;-72
2023/09/04 04:27:31;;;;;;;14.48;12.85;;;;;;;;;;10295977;28;20056;-72
2023/09/04 04:32:30;;;;;;;13.15;11.95;;;;;;;;;;10525979;22;20076;-72
2023/09/04 04:37:27;;;;;;;13.27;11.98;;;;;;;;;;10263267;28;20061;-72
2023/09/04 04:42:24;;;;;;;13.98;12.68;;;;;;;;;;10212367;28;20049;-72
2023/09/04 04:47:20;;;;;;;14.65;13.20;;;;;;;;;;10203180;28;20069;-73
2023/09/04 04:52:24;;;;;;;14.52;13.23;;;;;;;;;;10545516;22;20057;-71
2023/09/04 04:57:20;;;;;;;15.15;13.85;;;;;;;;;;10203122;28;20056;-71
2023/09/04 05:02:17;;;;;;;15.70;13.50;;;;;;;;;;10194996;28;20064;-71
2023/09/04 05:07:14;;;;;;;15.02;13.52;;;;;;;;;;10217933;28;20053;-71
2023/09/04 05:12:11;;;;;;;15.82;14.48;;;;;;;;;;10223669;28;20103;-71
2023/09/04 05:17:07;;;;;;;17.80;16.17;;;;;;;;;;10227229;28;20049;-75
2023/09/04 05:22:03;;;;;;;15.88;14.48;;;;;;;;;;10218300;28;20037;-71
2023/09/04 05:27:01;;;;;;;16.42;14.85;;;;;;;;;;10213464;28;20037;-72
2023/09/04 05:37:29;;;;;;;17.43;15.70;;;;;;;;;;2608723;26;20045;-72
2023/09/04 05:42:26;;;;;;;16.27;14.73;;;;;;;;;;10138779;28;20097;-72
2023/09/04 05:47:22;;;;;;;16.60;15.10;;;;;;;;;;10144819;28;21236;-72
2023/09/04 05:52:18;;;;;;;17.60;15.90;;;;;;;;;;10132315;28;20050;-72
2023/09/04 05:57:15;;;;;;;17.00;15.57;;;;;;;;;;10115610;28;20069;-71
2023/09/04 06:02:11;;;;;;;18.63;16.75;;;;;;;;;;10137196;28;20086;-71
2023/09/04 06:07:10;;;;;;;17.25;15.80;;;;;;;;;;10131410;28;20062;-72
2023/09/04 06:12:08;;;;;;;18.55;16.58;;;;;;;;;;10123519;28;20714;-72
2023/09/04 06:17:05;;;;;;;19.63;17.73;;;;;;;;;;10149788;28;20046;-71
2023/09/04 06:28:13;;;;;;;18.20;16.50;;;;;;;;;;10225569;28;20057;-72
2023/09/04 06:33:10;;;;;;;19.48;17.67;;;;;;;;;;10243606;28;20053;-72
2023/09/04 06:38:06;;;;;;;19.58;17.58;;;;;;;;;;10261126;28;20063;-72
2023/09/04 06:43:03;;;;;;;21.08;18.85;;;;;;;;;;10253084;28;20048;-72
2023/09/04 06:47:59;;;;;;;19.40;17.52;;;;;;;;;;10262429;28;20385;-72
2023/09/04 06:52:55;;;;;;;20.38;18.20;;;;;;;;;;10270225;28;20077;-72
2023/09/04 06:57:51;;;;;;;20.33;17.02;;;;;;;;;;10261847;28;20045;-71
2023/09/04 07:02:48;;;;;;;24.40;17.73;;;;;;;;;;10264366;28;20065;-72
2023/09/04 07:07:47;;;;;;;39.85;18.65;;;;;;;;;;10269949;28;20041;-72
2023/09/04 07:12:43;;;;;;;21.67;17.40;;;;;;;;;;10265611;28;20053;-72
2023/09/04 07:17:40;;;;;;;19.77;17.75;;;;;;;;;;10261575;28;20049;-72
2023/09/04 07:22:36;;;;;;;19.30;17.27;;;;;;;;;;10248695;23;20045;-72
2023/09/04 07:27:33;;;;;;;18.20;15.88;;;;;;;;;;10246699;28;20064;-72
2023/09/04 07:32:29;;;;;;;18.48;15.30;;;;;;;;;;10251469;28;20685;-72
2023/09/04 07:37:27;;;;;;;15.43;13.90;;;;;;;;;;10242135;28;20598;-73
2023/09/04 07:42:23;;;;;;;16.58;14.48;;;;;;;;;;10253685;28;20099;-72
2023/09/04 07:47:20;;;;;;;17.15;15.20;;;;;;;;;;10249057;28;20049;-72
2023/09/04 07:52:16;;;;;;;16.17;14.52;;;;;;;;;;10254080;28;20091;-72
2023/09/04 07:57:12;;;;;;;10.75;9.70;;;;;;;;;;10262071;28;20053;-72
2023/09/04 08:02:09;;;;;;;12.18;10.90;;;;;;;;;;10263489;28;20171;-72
2023/09/04 08:07:08;;;;;;;12.15;11.02;;;;;;;;;;10265206;28;20067;-72
2023/09/04 08:12:05;;;;;;;11.23;10.18;;;;;;;;;;10258836;28;20135;-72
2023/09/04 08:17:02;;;;;;;16.02;11.43;;;;;;;;;;10263144;28;20564;-72
2023/09/04 08:21:59;;;;;;;10.38;9.38;;;;;;;;;;10261595;28;20073;-72
2023/09/04 08:26:55;;;;;;;13.63;7.95;;;;;;;;;;10263544;28;20557;-72
2023/09/04 08:31:51;;;;;;;12.18;9.07;;;;;;;;;;10259684;28;20049;-72
2023/09/04 08:36:48;;;;;;;10.00;8.45;;;;;;;;;;10260830;28;20516;-73
2023/09/04 08:41:44;;;;;;;9.80;8.90;;;;;;;;;;10249791;28;20049;-72
2023/09/04 08:46:44;;;;;;;11.52;9.55;;;;;;;;;;10257149;28;20045;-72
2023/09/04 08:51:40;;;;;;;14.30;12.40;;;;;;;;;;10240943;28;20045;-71
2023/09/04 08:56:37;;;;;;;10.00;9.10;;;;;;;;;;10248189;28;20049;-71
2023/09/04 09:01:35;;;;;;;10.23;9.20;;;;;;;;;;10253359;28;20057;-74
2023/09/04 09:06:32;;;;;;;12.30;9.50;;;;;;;;;;10251350;28;20147;-73
2023/09/04 09:11:29;;;;;;;10.00;9.00;;;;;;;;;;10256951;28;20053;-72
2023/09/04 09:16:25;;;;;;;14.35;9.90;;;;;;;;;;10261065;28;20053;-72
2023/09/04 09:21:22;;;;;;;16.08;8.95;;;;;;;;;;10430435;23;20053;-73
2023/09/04 09:26:19;;;;;;;9.25;8.30;;;;;;;;;;10282371;28;20052;-72
2023/09/04 09:31:15;;;;;;;9.50;7.72;;;;;;;;;;10294593;28;20107;-72
2023/09/04 09:36:12;;;;;;;7.95;7.25;;;;;;;;;;10307757;28;20147;-74
2023/09/04 09:41:10;;;;;;;8.55;7.63;;;;;;;;;;10294065;28;20062;-72
2023/09/04 09:46:09;;;;;;;8.50;7.70;;;;;;;;;;10297933;28;20091;-74
2023/09/04 09:56:12;;;;;;;8.80;8.00;;;;;;;;;;10291420;22;20069;-73
2023/09/04 10:06:23;;;;;;;9.05;8.15;;;;;;;;;;10005890;26;20080;-73
2023/09/04 10:28:32;;;;;;;8.32;7.65;;;;;;;;;;10249023;28;20072;-74
2023/09/04 10:33:39;;;;;;;7.78;7.05;;;;;;;;;;10250750;28;20045;-74
2023/09/04 10:38:36;;;;;;;8.60;7.95;;;;;;;;;;10253131;28;20095;-74
2023/09/04 10:43:40;;;;;;;7.53;6.93;;;;;;;;;;10255464;28;20440;-73
2023/09/04 10:48:44;;;;;;;7.18;6.68;;;;;;;;;;10246051;28;20673;-74
2023/09/04 10:53:41;;;;;;;7.82;7.22;;;;;;;;;;10232889;28;20053;-73
2023/09/04 10:58:57;;;;;;;8.00;7.30;;;;;;;;;;10247286;28;20484;-72
2023/09/04 11:03:55;;;;;;;8.63;7.03;;;;;;;;;;10247461;28;20436;-72
2023/09/04 11:08:52;;;;;;;7.50;6.85;;;;;;;;;;10248898;28;20658;-72
2023/09/04 11:13:54;;;;;;;7.30;6.50;;;;;;;;;;10216279;28;20501;-72
2023/09/04 11:19:00;;;;;;;7.30;6.68;;;;;;;;;;10240756;28;20084;-73
2023/09/04 11:23:58;;;;;;;7.25;6.68;;;;;;;;;;10248514;28;20052;-72
2023/09/04 11:28:58;;;;;;;6.47;5.97;;;;;;;;;;10233669;28;20056;-72
2023/09/04 11:33:55;;;;;;;6.60;6.00;;;;;;;;;;10262045;28;20055;-72
2023/09/04 11:39:12;;;;;;;6.90;6.30;;;;;;;;;;10258556;28;20144;-72
2023/09/04 11:44:09;;;;;;;6.72;6.20;;;;;;;;;;10232185;28;20049;-72
2023/09/04 11:49:08;;;;;;;8.13;6.00;;;;;;;;;;10245341;28;20087;-72
2023/09/04 11:54:05;;;;;;;6.82;6.32;;;;;;;;;;10255813;28;20053;-72
2023/09/04 12:04:14;;;;;;;6.38;5.93;;;;;;;;;;2771418;26;20061;-72
2023/09/04 12:15:30;;;;;;;6.50;6.00;;;;;;;;;;10214347;28;20053;-72
2023/09/04 12:20:31;;;;;;;6.80;6.25;;;;;;;;;;10224471;28;20049;-72
2023/09/04 12:25:40;;;;;;;6.65;6.07;;;;;;;;;;10225350;28;20062;-72
2023/09/04 12:30:38;;;;;;;6.22;5.72;;;;;;;;;;10225354;28;20468;-73
2023/09/04 12:35:34;;;;;;;7.32;6.68;;;;;;;;;;10224873;28;20069;-72
2023/09/04 12:40:34;;;;;;;7.32;6.20;;;;;;;;;;10449709;22;20041;-73
2023/09/04 12:45:30;;;;;;;6.47;5.97;;;;;;;;;;10276563;28;20115;-72
2023/09/04 12:50:27;;;;;;;7.28;6.78;;;;;;;;;;10266332;22;20041;-73
2023/09/04 12:55:23;;;;;;;6.68;6.18;;;;;;;;;;10256103;28;20055;-72
2023/09/04 13:16:21;;;;;;;6.97;6.38;;;;;;;;;;10216895;28;19921;-72
2023/09/04 13:21:18;;;;;;;6.75;6.25;;;;;;;;;;10202991;28;20157;-73
2023/09/04 13:26:14;;;;;;;7.03;6.43;;;;;;;;;;10214041;28;20056;-73
2023/09/04 13:31:13;;;;;;;7.28;6.63;;;;;;;;;;10214589;28;20077;-73
2023/09/04 13:36:09;;;;;;;7.40;6.80;;;;;;;;;;10214330;28;20061;-73
2023/09/04 13:41:06;;;;;;;8.13;7.53;;;;;;;;;;10209359;28;20609;-73
2023/09/04 13:46:03;;;;;;;8.50;7.80;;;;;;;;;;10213172;28;20061;-72
2023/09/04 14:02:50;;;;;;;;;;;;;;;;;;;;;
2023/09/04 14:08:11;;;;;;;7.90;7.20;;;;;;;;;;10214006;28;20430;-73
2023/09/04 14:13:09;;;;;;;7.47;6.95;;;;;;;;;;10219498;28;20057;-73
2023/09/04 14:18:06;;;;;;;7.60;7.10;;;;;;;;;;10207019;28;20065;-73
2023/09/04 14:34:14;;;;;;;7.32;6.82;;;;;;;;;;10824433;22;20041;-72
2023/09/04 14:39:14;;;;;;;7.60;7.00;;;;;;;;;;10282708;22;20028;-74
2023/09/04 14:44:17;;;;;;;6.88;6.38;;;;;;;;;;10257978;28;20076;-75
2023/09/04 14:49:13;;;;;;;7.63;6.82;;;;;;;;;;10262896;28;20057;-74
2023/09/04 14:54:10;;;;;;;7.45;6.90;;;;;;;;;;10233897;28;20524;-74
2023/09/04 14:59:06;;;;;;;7.38;6.70;;;;;;;;;;10244023;28;20049;-74
2023/09/04 15:04:02;;;;;;;7.40;6.70;;;;;;;;;;10237493;28;20067;-74
2023/09/04 15:08:59;;;;;;;6.85;6.25;;;;;;;;;;10250345;28;20062;-73
2023/09/04 15:13:55;;;;;;;7.40;6.70;;;;;;;;;;10248035;28;20092;-73
2023/09/04 15:23:47;;;;;;;7.43;6.82;;;;;;;;;;10437933;22;20068;-74
2023/09/04 15:28:43;;;;;;;7.40;6.90;;;;;;;;;;10236634;28;20060;-73
2023/09/04 15:33:40;;;;;;;7.35;6.72;;;;;;;;;;10263386;28;20045;-74
2023/09/04 15:38:37;;;;;;;7.30;6.63;;;;;;;;;;10260510;28;20041;-73
2023/09/04 15:43:34;;;;;;;7.05;6.55;;;;;;;;;;10259935;28;20053;-74
2023/09/04 15:48:30;;;;;;;7.63;7.13;;;;;;;;;;10267886;28;20134;-73
2023/09/04 15:53:27;;;;;;;7.43;6.80;;;;;;;;;;10263249;28;20131;-73
2023/09/04 15:58:25;;;;;;;7.22;6.63;;;;;;;;;;10261722;28;20057;-72
2023/09/04 16:03:21;;;;;;;6.88;6.38;;;;;;;;;;10257970;28;20049;-73
2023/09/04 16:08:20;;;;;;;6.78;6.28;;;;;;;;;;10259242;28;20079;-72
2023/09/04 16:13:22;;;;;;;7.28;6.43;;;;;;;;;;10264315;28;20056;-72
2023/09/04 16:18:18;;;;;;;6.20;5.80;;;;;;;;;;10260630;28;20397;-73
2023/09/04 16:23:18;;;;;;;6.45;5.95;;;;;;;;;;10260161;28;20056;-74
2023/09/04 16:28:19;;;;;;;6.38;5.88;;;;;;;;;;10252010;28;20561;-74
2023/09/04 16:33:16;;;;;;;6.72;6.13;;;;;;;;;;10255927;28;20045;-73
2023/09/04 16:38:13;;;;;;;6.22;5.65;;;;;;;;;;10263078;28;20527;-74
2023/09/04 16:43:09;;;;;;;5.95;5.43;;;;;;;;;;10251356;28;20686;-71
2023/09/04 16:48:06;;;;;;;6.60;6.00;;;;;;;;;;10257855;28;20053;-71
2023/09/04 16:53:03;;;;;;;6.47;5.93;;;;;;;;;;10258433;28;20140;-73
2023/09/04 16:58:00;;;;;;;6.88;6.28;;;;;;;;;;10258121;28;20072;-73
2023/09/04 17:02:56;;;;;;;6.95;5.82;;;;;;;;;;10263997;28;20568;-73
2023/09/04 17:07:53;;;;;;;7.30;5.68;;;;;;;;;;10258948;28;20131;-73
2023/09/04 17:12:50;;;;;;;6.35;5.63;;;;;;;;;;10248224;28;20045;-73
2023/09/04 17:17:47;;;;;;;6.70;6.10;;;;;;;;;;10260287;28;20048;-72
2023/09/04 17:22:43;;;;;;;10.32;6.05;;;;;;;;;;10252116;28;20049;-72
2023/09/04 17:27:39;;;;;;;5.88;5.38;;;;;;;;;;10262560;28;20048;-73
2023/09/04 17:32:37;;;;;;;6.45;5.78;;;;;;;;;;10252409;28;20046;-72
2023/09/04 17:37:33;;;;;;;6.68;5.97;;;;;;;;;;10253559;28;20095;-72
2023/09/04 17:42:30;;;;;;;7.13;6.53;;;;;;;;;;10260704;28;20053;-73
2023/09/04 17:47:26;;;;;;;7.13;6.53;;;;;;;;;;10252952;28;20052;-73
2023/09/04 17:52:22;;;;;;;6.45;5.53;;;;;;;;;;10257658;28;20044;-72
2023/09/04 17:57:19;;;;;;;6.50;6.00;;;;;;;;;;10263098;28;20159;-73
2023/09/04 18:02:15;;;;;;;6.93;6.32;;;;;;;;;;10253625;28;20403;-74
2023/09/04 18:07:12;;;;;;;7.03;6.35;;;;;;;;;;10262544;28;20140;-75
2023/09/04 18:12:08;;;;;;;8.60;7.70;;;;;;;;;;10257515;28;20512;-75
2023/09/04 18:17:05;;;;;;;7.38;6.78;;;;;;;;;;10255770;28;20045;-74
2023/09/04 18:22:01;;;;;;;8.18;7.40;;;;;;;;;;10259726;28;20053;-74
2023/09/04 18:27:00;;;;;;;7.55;6.75;;;;;;;;;;10254492;28;20751;-74
2023/09/04 18:31:57;;;;;;;9.65;7.82;;;;;;;;;;10242958;28;20037;-74
2023/09/04 18:36:53;;;;;;;9.18;7.97;;;;;;;;;;10256292;28;20057;-74
2023/09/04 18:41:50;;;;;;;8.10;7.40;;;;;;;;;;10260273;28;20053;-74
2023/09/04 18:46:46;;;;;;;11.07;7.78;;;;;;;;;;10249313;28;20122;-74
2023/09/04 18:51:42;;;;;;;10.80;8.05;;;;;;;;;;10260683;28;20649;-74
2023/09/04 18:56:39;;;;;;;8.55;7.72;;;;;;;;;;10257899;28;20044;-74
2023/09/04 19:01:35;;;;;;;12.48;9.60;;;;;;;;;;10249292;28;20597;-74
2023/09/04 19:06:31;;;;;;;10.25;8.85;;;;;;;;;;10250730;28;20052;-74
2023/09/04 19:11:28;;;;;;;8.90;8.10;;;;;;;;;;10250662;28;20568;-74
2023/09/04 19:16:24;;;;;;;9.82;8.93;;;;;;;;;;10260076;28;20045;-74
2023/09/04 19:21:21;;;;;;;10.32;9.23;;;;;;;;;;10258257;28;20049;-74
2023/09/04 19:26:17;;;;;;;10.38;9.50;;;;;;;;;;10248379;28;20467;-74
2023/09/04 19:31:13;;;;;;;9.90;8.75;;;;;;;;;;10250400;28;20060;-70
2023/09/04 19:36:10;;;;;;;9.00;8.00;;;;;;;;;;10256899;28;20055;-69
2023/09/04 19:41:06;;;;;;;12.10;9.10;;;;;;;;;;10258168;28;20053;-70
2023/09/04 19:46:02;;;;;;;14.77;9.63;;;;;;;;;;10263688;28;20048;-70
2023/09/04 19:50:59;;;;;;;11.73;8.63;;;;;;;;;;10269507;28;20132;-70
2023/09/04 19:55:55;;;;;;;9.75;8.60;;;;;;;;;;10243263;28;20057;-71
2023/09/04 20:00:52;;;;;;;12.68;8.77;;;;;;;;;;10258750;28;20057;-69
2023/09/04 20:05:48;;;;;;;10.05;8.98;;;;;;;;;;10261412;28;20049;-72
2023/09/04 20:10:45;;;;;;;8.65;7.85;;;;;;;;;;10257174;28;20511;-71
2023/09/04 20:15:41;;;;;;;10.27;8.50;;;;;;;;;;10254776;28;20829;-72
2023/09/04 20:20:38;;;;;;;10.45;8.80;;;;;;;;;;10262186;28;20092;-72
2023/09/04 20:25:34;;;;;;;9.00;8.10;;;;;;;;;;10272488;28;20460;-73
2023/09/04 20:30:31;;;;;;;9.23;8.25;;;;;;;;;;10260200;28;20076;-72
2023/09/04 20:35:27;;;;;;;8.10;7.22;;;;;;;;;;10256822;28;20420;-72
2023/09/04 20:40:25;;;;;;;9.00;8.05;;;;;;;;;;10263010;28;20056;-72
2023/09/04 20:45:21;;;;;;;9.52;8.52;;;;;;;;;;10246530;28;20541;-72
2023/09/04 20:50:19;;;;;;;9.07;8.15;;;;;;;;;;10263360;28;20528;-70
2023/09/04 20:55:15;;;;;;;10.52;8.60;;;;;;;;;;10255050;28;20049;-69
2023/09/04 21:00:13;;;;;;;10.10;8.25;;;;;;;;;;10246332;28;20449;-71
2023/09/04 21:05:09;;;;;;;9.00;8.02;;;;;;;;;;10256154;28;20049;-70
2023/09/04 23:26:37;;;;;;;10.32;7.63;;;;;;;;;;10270541;28;20508;-71
2023/09/04 23:31:34;;;;;;;7.30;6.60;;;;;;;;;;10265022;28;20069;-69
2023/09/04 23:36:54;;;;;;;7.78;6.90;;;;;;;;;;10268713;28;20439;-69
2023/09/04 23:47:02;;;;;;;7.45;6.75;;;;;;;;;;10275293;28;20570;-72
2023/09/04 23:51:58;;;;;;;7.95;7.15;;;;;;;;;;10254637;28;20107;-71
2023/09/04 23:56:56;;;;;;;8.02;6.90;;;;;;;;;;10270737;28;20133;-68
